sensor_id;sensor_type;location;lat;lon;timestamp;pressure;altitude;pressure_sealevel;temperature;humidity
75401;BME280;63974;47.538;18.972;2023-05-15T00:01:11;99517.56;;;12.97;100.00
75401;BME280;63974;47.538;18.972;2023-05-15T00:04:14;99513.53;;;13.01;100.00
75401;BME280;63974;47.538;18.972;2023-05-15T00:07:18;99512.13;;;13.11;100.00
75401;BME280;63974;47.538;18.972;2023-05-15T00:10:20;99503.69;;;13.22;99.88
75401;BME280;63974;47.538;18.972;2023-05-15T00:13:23;99501.50;;;13.06;100.00
75401;BME280;63974;47.538;18.972;2023-05-15T00:16:26;99498.09;;;12.99;100.00
75401;BME280;63974;47.538;18.972;2023-05-15T00:19:29;99512.34;;;12.90;100.00
75401;BME280;63974;47.538;18.972;2023-05-15T00:22:31;99511.34;;;12.98;100.00
75401;BME280;63974;47.538;18.972;2023-05-15T00:25:34;99514.97;;;12.97;100.00
75401;BME280;63974;47.538;18.972;2023-05-15T00:28:37;99526.97;;;13.04;100.00
75401;BME280;63974;47.538;18.972;2023-05-15T00:31:40;99548.00;;;13.16;100.00
75401;BME280;63974;47.538;18.972;2023-05-15T00:34:42;99563.44;;;13.17;99.44
75401;BME280;63974;47.538;18.972;2023-05-15T00:37:45;99569.44;;;13.18;99.69
75401;BME280;63974;47.538;18.972;2023-05-15T00:40:48;99576.66;;;13.16;99.62
75401;BME280;63974;47.538;18.972;2023-05-15T00:43:51;99576.66;;;13.22;99.45
75401;BME280;63974;47.538;18.972;2023-05-15T00:46:56;99578.09;;;13.18;99.67
75401;BME280;63974;47.538;18.972;2023-05-15T00:50:00;99578.88;;;13.19;99.65
75401;BME280;63974;47.538;18.972;2023-05-15T00:53:04;99575.91;;;13.09;100.00
75401;BME280;63974;47.538;18.972;2023-05-15T00:56:07;99583.09;;;13.13;99.98
75401;BME280;63974;47.538;18.972;2023-05-15T00:59:11;99581.69;;;13.17;99.56
75401;BME280;63974;47.538;18.972;2023-05-15T01:02:16;99586.69;;;13.19;99.81
75401;BME280;63974;47.538;18.972;2023-05-15T01:05:20;99565.44;;;13.22;99.30
75401;BME280;63974;47.538;18.972;2023-05-15T01:08:42;99563.63;;;13.22;99.41
75401;BME280;63974;47.538;18.972;2023-05-15T01:11:46;99573.47;;;13.20;99.26
75401;BME280;63974;47.538;18.972;2023-05-15T01:14:51;99573.47;;;13.27;99.01
75401;BME280;63974;47.538;18.972;2023-05-15T01:17:55;99576.66;;;13.22;98.95
75401;BME280;63974;47.538;18.972;2023-05-15T01:21:05;99569.25;;;13.19;99.12
75401;BME280;63974;47.538;18.972;2023-05-15T01:27:58;99571.44;;;13.22;99.05
75401;BME280;63974;47.538;18.972;2023-05-15T01:31:13;99574.47;;;13.13;99.46
75401;BME280;63974;47.538;18.972;2023-05-15T01:34:22;99565.66;;;13.07;99.87
75401;BME280;63974;47.538;18.972;2023-05-15T01:37:30;99573.28;;;13.09;99.58
75401;BME280;63974;47.538;18.972;2023-05-15T01:40:36;99577.09;;;13.06;99.64
75401;BME280;63974;47.538;18.972;2023-05-15T01:43:42;99582.09;;;13.14;99.58
75401;BME280;63974;47.538;18.972;2023-05-15T01:46:48;99576.69;;;13.09;99.74
75401;BME280;63974;47.538;18.972;2023-05-15T01:49:53;99567.25;;;13.08;99.66
75401;BME280;63974;47.538;18.972;2023-05-15T01:52:58;99546.59;;;13.00;100.00
75401;BME280;63974;47.538;18.972;2023-05-15T01:56:04;99533.97;;;12.91;100.00
75401;BME280;63974;47.538;18.972;2023-05-15T01:59:08;99539.19;;;12.84;100.00
75401;BME280;63974;47.538;18.972;2023-05-15T02:02:11;99540.78;;;12.85;100.00
75401;BME280;63974;47.538;18.972;2023-05-15T02:05:16;99543.97;;;12.87;100.00
75401;BME280;63974;47.538;18.972;2023-05-15T02:08:21;99531.38;;;12.91;100.00
75401;BME280;63974;47.538;18.972;2023-05-15T02:11:27;99531.16;;;12.92;100.00
75401;BME280;63974;47.538;18.972;2023-05-15T02:14:30;99538.81;;;12.94;100.00
75401;BME280;63974;47.538;18.972;2023-05-15T02:17:33;99541.38;;;12.87;100.00
75401;BME280;63974;47.538;18.972;2023-05-15T02:20:35;99543.19;;;12.87;100.00
75401;BME280;63974;47.538;18.972;2023-05-15T02:23:38;99523.56;;;12.97;100.00
75401;BME280;63974;47.538;18.972;2023-05-15T02:27:02;99504.13;;;13.00;100.00
75401;BME280;63974;47.538;18.972;2023-05-15T02:33:49;99481.44;;;13.07;99.05
75401;BME280;63974;47.538;18.972;2023-05-15T02:36:53;99473.84;;;12.92;100.00
75401;BME280;63974;47.538;18.972;2023-05-15T02:40:00;99477.66;;;12.90;100.00
75401;BME280;63974;47.538;18.972;2023-05-15T02:43:09;99470.66;;;12.97;100.00
75401;BME280;63974;47.538;18.972;2023-05-15T02:46:12;99498.09;;;13.06;99.30
75401;BME280;63974;47.538;18.972;2023-05-15T02:49:17;99496.09;;;12.95;99.96
75401;BME280;63974;47.538;18.972;2023-05-15T02:52:22;99508.34;;;13.01;99.42
75401;BME280;63974;47.538;18.972;2023-05-15T02:55:25;99507.53;;;13.00;99.34
75401;BME280;63974;47.538;18.972;2023-05-15T02:58:29;99512.53;;;13.02;99.62
75401;BME280;63974;47.538;18.972;2023-05-15T03:01:31;99515.75;;;12.97;99.55
75401;BME280;63974;47.538;18.972;2023-05-15T03:04:34;99515.56;;;13.05;99.57
75401;BME280;63974;47.538;18.972;2023-05-15T03:07:37;99516.31;;;13.12;98.95
75401;BME280;63974;47.538;18.972;2023-05-15T03:10:40;99504.72;;;13.02;99.33
75401;BME280;63974;47.538;18.972;2023-05-15T03:13:43;99497.88;;;13.14;99.09
75401;BME280;63974;47.538;18.972;2023-05-15T03:16:45;99500.13;;;12.97;99.15
75401;BME280;63974;47.538;18.972;2023-05-15T03:19:48;99506.94;;;12.98;99.30
75401;BME280;63974;47.538;18.972;2023-05-15T03:22:51;99503.72;;;13.03;99.18
75401;BME280;63974;47.538;18.972;2023-05-15T03:25:54;99515.56;;;12.99;99.14
75401;BME280;63974;47.538;18.972;2023-05-15T03:28:57;99502.28;;;13.07;99.50
75401;BME280;63974;47.538;18.972;2023-05-15T03:31:59;99493.25;;;13.16;98.53
75401;BME280;63974;47.538;18.972;2023-05-15T03:35:02;99493.84;;;13.18;98.67
75401;BME280;63974;47.538;18.972;2023-05-15T03:38:05;99493.28;;;13.09;99.02
75401;BME280;63974;47.538;18.972;2023-05-15T03:41:09;99489.22;;;13.20;99.04
75401;BME280;63974;47.538;18.972;2023-05-15T03:44:11;99503.91;;;13.21;98.58
75401;BME280;63974;47.538;18.972;2023-05-15T03:47:14;99511.53;;;13.09;99.03
75401;BME280;63974;47.538;18.972;2023-05-15T03:50:17;99528.34;;;13.26;98.12
75401;BME280;63974;47.538;18.972;2023-05-15T03:53:20;99544.22;;;13.12;98.86
75401;BME280;63974;47.538;18.972;2023-05-15T03:56:23;99546.00;;;13.05;99.24
75401;BME280;63974;47.538;18.972;2023-05-15T03:59:26;99536.38;;;13.18;98.92
75401;BME280;63974;47.538;18.972;2023-05-15T04:02:29;99519.09;;;13.37;97.72
75401;BME280;63974;47.538;18.972;2023-05-15T04:05:32;99521.09;;;13.41;97.36
75401;BME280;63974;47.538;18.972;2023-05-15T04:08:34;99523.28;;;13.38;96.96
75401;BME280;63974;47.538;18.972;2023-05-15T04:11:37;99521.06;;;13.47;97.21
75401;BME280;63974;47.538;18.972;2023-05-15T04:14:40;99520.22;;;13.53;97.01
75401;BME280;63974;47.538;18.972;2023-05-15T04:17:44;99515.56;;;13.62;96.49
75401;BME280;63974;47.538;18.972;2023-05-15T04:20:47;99501.56;;;13.56;96.74
75401;BME280;63974;47.538;18.972;2023-05-15T04:23:50;99497.94;;;13.64;95.67
75401;BME280;63974;47.538;18.972;2023-05-15T04:26:52;99502.34;;;13.63;96.32
75401;BME280;63974;47.538;18.972;2023-05-15T04:29:55;99510.34;;;13.68;96.00
75401;BME280;63974;47.538;18.972;2023-05-15T04:32:58;99508.56;;;13.62;95.68
75401;BME280;63974;47.538;18.972;2023-05-15T04:36:01;99515.22;;;13.58;96.25
75401;BME280;63974;47.538;18.972;2023-05-15T04:39:03;99520.06;;;13.48;95.95
75401;BME280;63974;47.538;18.972;2023-05-15T04:42:06;99531.25;;;13.55;96.22
75401;BME280;63974;47.538;18.972;2023-05-15T04:45:10;99530.69;;;13.47;96.69
75401;BME280;63974;47.538;18.972;2023-05-15T04:48:12;99526.47;;;13.46;96.71
75401;BME280;63974;47.538;18.972;2023-05-15T04:51:15;99530.09;;;13.38;96.56
75401;BME280;63974;47.538;18.972;2023-05-15T04:54:18;99534.53;;;13.44;96.71
75401;BME280;63974;47.538;18.972;2023-05-15T04:57:20;99532.53;;;13.40;96.87
75401;BME280;63974;47.538;18.972;2023-05-15T05:00:23;99535.50;;;13.37;96.71
75401;BME280;63974;47.538;18.972;2023-05-15T05:03:26;99528.34;;;13.33;96.96
75401;BME280;63974;47.538;18.972;2023-05-15T05:06:29;99537.16;;;13.38;96.98
75401;BME280;63974;47.538;18.972;2023-05-15T05:09:32;99541.53;;;13.38;96.72
75401;BME280;63974;47.538;18.972;2023-05-15T05:12:34;99549.69;;;13.67;95.63
75401;BME280;63974;47.538;18.972;2023-05-15T05:15:37;99553.84;;;13.81;95.19
75401;BME280;63974;47.538;18.972;2023-05-15T05:18:40;99538.19;;;13.81;94.34
75401;BME280;63974;47.538;18.972;2023-05-15T05:21:43;99544.22;;;13.81;94.12
75401;BME280;63974;47.538;18.972;2023-05-15T05:24:45;99541.84;;;13.73;94.76
75401;BME280;63974;47.538;18.972;2023-05-15T05:27:48;99534.38;;;13.83;93.56
75401;BME280;63974;47.538;18.972;2023-05-15T05:30:51;99549.59;;;13.86;93.39
75401;BME280;63974;47.538;18.972;2023-05-15T05:33:54;99537.72;;;13.90;93.05
75401;BME280;63974;47.538;18.972;2023-05-15T05:36:56;99540.97;;;13.86;93.00
75401;BME280;63974;47.538;18.972;2023-05-15T05:39:59;99555.03;;;13.85;93.75
75401;BME280;63974;47.538;18.972;2023-05-15T05:43:02;99575.31;;;13.83;94.12
75401;BME280;63974;47.538;18.972;2023-05-15T05:46:05;99585.31;;;13.86;94.01
75401;BME280;63974;47.538;18.972;2023-05-15T05:49:08;99588.19;;;13.78;93.46
75401;BME280;63974;47.538;18.972;2023-05-15T05:52:10;99591.00;;;13.70;93.92
75401;BME280;63974;47.538;18.972;2023-05-15T05:55:14;99585.63;;;13.65;94.26
75401;BME280;63974;47.538;18.972;2023-05-15T05:58:16;99587.66;;;13.56;94.02
75401;BME280;63974;47.538;18.972;2023-05-15T06:01:27;99589.63;;;13.54;94.07
75401;BME280;63974;47.538;18.972;2023-05-15T06:04:31;99583.28;;;13.38;93.89
75401;BME280;63974;47.538;18.972;2023-05-15T06:07:35;99591.91;;;13.19;95.44
75401;BME280;63974;47.538;18.972;2023-05-15T06:10:37;99580.47;;;13.07;95.31
75401;BME280;63974;47.538;18.972;2023-05-15T06:13:41;99592.31;;;13.09;95.33
75401;BME280;63974;47.538;18.972;2023-05-15T06:16:44;99596.13;;;13.39;94.34
75401;BME280;63974;47.538;18.972;2023-05-15T06:19:47;99598.09;;;13.31;94.23
75401;BME280;63974;47.538;18.972;2023-05-15T06:22:50;99604.69;;;13.52;93.74
75401;BME280;63974;47.538;18.972;2023-05-15T06:25:53;99608.75;;;13.29;94.05
75401;BME280;63974;47.538;18.972;2023-05-15T06:28:56;99594.50;;;13.32;93.97
75401;BME280;63974;47.538;18.972;2023-05-15T06:31:58;99601.94;;;13.28;94.81
75401;BME280;63974;47.538;18.972;2023-05-15T06:35:02;99601.91;;;13.47;94.07
75401;BME280;63974;47.538;18.972;2023-05-15T06:38:04;99614.53;;;13.57;93.31
75401;BME280;63974;47.538;18.972;2023-05-15T06:41:07;99606.06;;;13.74;92.52
75401;BME280;63974;47.538;18.972;2023-05-15T06:44:10;99611.09;;;13.69;92.84
75401;BME280;63974;47.538;18.972;2023-05-15T06:47:12;99609.59;;;13.93;91.51
75401;BME280;63974;47.538;18.972;2023-05-15T06:50:15;99596.84;;;14.16;90.30
75401;BME280;63974;47.538;18.972;2023-05-15T06:53:18;99588.88;;;14.48;87.81
75401;BME280;63974;47.538;18.972;2023-05-15T06:56:22;99585.28;;;14.74;87.63
75401;BME280;63974;47.538;18.972;2023-05-15T06:59:25;99592.81;;;15.13;85.63
75401;BME280;63974;47.538;18.972;2023-05-15T07:02:28;99609.53;;;15.12;85.48
75401;BME280;63974;47.538;18.972;2023-05-15T07:05:30;99606.47;;;15.15;84.68
75401;BME280;63974;47.538;18.972;2023-05-15T07:08:33;99610.84;;;15.21;85.44
75401;BME280;63974;47.538;18.972;2023-05-15T07:11:36;99609.56;;;15.54;83.89
75401;BME280;63974;47.538;18.972;2023-05-15T07:14:40;99611.09;;;15.79;82.61
75401;BME280;63974;47.538;18.972;2023-05-15T07:17:43;99597.97;;;16.15;82.03
75401;BME280;63974;47.538;18.972;2023-05-15T07:20:45;99601.03;;;16.12;82.08
75401;BME280;63974;47.538;18.972;2023-05-15T07:23:48;99592.41;;;15.58;81.19
75401;BME280;63974;47.538;18.972;2023-05-15T07:26:51;99595.41;;;15.37;82.43
75401;BME280;63974;47.538;18.972;2023-05-15T07:30:01;99599.56;;;15.45;83.55
75401;BME280;63974;47.538;18.972;2023-05-15T07:33:06;99596.63;;;15.77;81.69
75401;BME280;63974;47.538;18.972;2023-05-15T07:36:08;99593.28;;;15.52;81.47
75401;BME280;63974;47.538;18.972;2023-05-15T07:39:12;99587.38;;;15.74;81.44
75401;BME280;63974;47.538;18.972;2023-05-15T07:42:16;99589.19;;;15.74;80.80
75401;BME280;63974;47.538;18.972;2023-05-15T07:45:18;99594.56;;;15.97;80.89
75401;BME280;63974;47.538;18.972;2023-05-15T07:48:21;99596.84;;;16.23;78.01
75401;BME280;63974;47.538;18.972;2023-05-15T07:51:24;99600.09;;;16.54;79.70
75401;BME280;63974;47.538;18.972;2023-05-15T07:54:27;99599.13;;;16.19;77.71
75401;BME280;63974;47.538;18.972;2023-05-15T07:57:32;99587.59;;;16.38;78.08
75401;BME280;63974;47.538;18.972;2023-05-15T08:00:35;99583.84;;;16.16;79.33
75401;BME280;63974;47.538;18.972;2023-05-15T08:03:38;99592.00;;;16.56;78.64
75401;BME280;63974;47.538;18.972;2023-05-15T08:06:41;99599.00;;;16.73;77.34
75401;BME280;63974;47.538;18.972;2023-05-15T08:09:45;99604.75;;;16.52;77.71
75401;BME280;63974;47.538;18.972;2023-05-15T08:12:48;99607.28;;;16.59;76.77
75401;BME280;63974;47.538;18.972;2023-05-15T08:15:51;99599.41;;;16.59;75.45
75401;BME280;63974;47.538;18.972;2023-05-15T08:18:54;99599.84;;;16.44;76.36
75401;BME280;63974;47.538;18.972;2023-05-15T08:22:02;99612.09;;;16.62;76.77
75401;BME280;63974;47.538;18.972;2023-05-15T08:25:06;99610.59;;;16.54;77.43
75401;BME280;63974;47.538;18.972;2023-05-15T08:28:10;99607.16;;;16.54;76.59
75401;BME280;63974;47.538;18.972;2023-05-15T08:31:13;99608.50;;;16.86;75.39
75401;BME280;63974;47.538;18.972;2023-05-15T08:34:15;99606.59;;;17.73;72.27
75401;BME280;63974;47.538;18.972;2023-05-15T08:37:18;99604.19;;;18.50;70.29
75401;BME280;63974;47.538;18.972;2023-05-15T08:40:21;99608.81;;;18.60;68.77
75401;BME280;63974;47.538;18.972;2023-05-15T08:43:39;99612.53;;;18.19;70.08
75401;BME280;63974;47.538;18.972;2023-05-15T08:46:44;99597.00;;;18.46;68.18
75401;BME280;63974;47.538;18.972;2023-05-15T08:50:05;99607.78;;;18.05;67.89
75401;BME280;63974;47.538;18.972;2023-05-15T08:53:12;99609.22;;;17.85;69.60
75401;BME280;63974;47.538;18.972;2023-05-15T08:56:15;99613.69;;;18.12;68.64
75401;BME280;63974;47.538;18.972;2023-05-15T08:59:19;99619.03;;;17.78;69.76
75401;BME280;63974;47.538;18.972;2023-05-15T09:02:23;99622.22;;;17.80;71.14
75401;BME280;63974;47.538;18.972;2023-05-15T09:05:28;99620.50;;;17.97;67.80
75401;BME280;63974;47.538;18.972;2023-05-15T09:08:32;99628.47;;;18.41;68.41
75401;BME280;63974;47.538;18.972;2023-05-15T09:11:35;99630.00;;;19.14;65.47
75401;BME280;63974;47.538;18.972;2023-05-15T09:14:39;99630.69;;;19.76;62.96
75401;BME280;63974;47.538;18.972;2023-05-15T09:17:43;99628.69;;;20.26;62.64
75401;BME280;63974;47.538;18.972;2023-05-15T09:20:47;99629.94;;;20.18;61.65
75401;BME280;63974;47.538;18.972;2023-05-15T09:23:50;99643.69;;;20.25;61.27
75401;BME280;63974;47.538;18.972;2023-05-15T09:27:04;99643.53;;;20.32;59.98
75401;BME280;63974;47.538;18.972;2023-05-15T09:30:08;99647.69;;;19.85;62.72
75401;BME280;63974;47.538;18.972;2023-05-15T09:33:11;99651.31;;;19.13;66.59
75401;BME280;63974;47.538;18.972;2023-05-15T09:36:20;99648.91;;;19.11;68.46
75401;BME280;63974;47.538;18.972;2023-05-15T09:39:23;99654.94;;;18.79;70.97
75401;BME280;63974;47.538;18.972;2023-05-15T09:42:26;99652.69;;;17.92;74.50
75401;BME280;63974;47.538;18.972;2023-05-15T09:45:29;99652.09;;;17.33;75.31
75401;BME280;63974;47.538;18.972;2023-05-15T09:48:33;99658.31;;;17.50;75.90
75401;BME280;63974;47.538;18.972;2023-05-15T09:51:37;99652.63;;;17.64;75.97
75401;BME280;63974;47.538;18.972;2023-05-15T09:54:44;99657.91;;;18.03;73.44
75401;BME280;63974;47.538;18.972;2023-05-15T10:01:09;99664.72;;;18.27;73.22
75401;BME280;63974;47.538;18.972;2023-05-15T10:04:12;99655.66;;;18.74;71.47
75401;BME280;63974;47.538;18.972;2023-05-15T10:07:26;99649.41;;;18.64;70.95
75401;BME280;63974;47.538;18.972;2023-05-15T10:10:30;99651.72;;;18.60;71.72
75401;BME280;63974;47.538;18.972;2023-05-15T10:13:33;99647.06;;;18.00;73.27
75401;BME280;63974;47.538;18.972;2023-05-15T10:16:38;99656.47;;;17.50;75.62
75401;BME280;63974;47.538;18.972;2023-05-15T10:19:41;99655.09;;;17.25;76.66
75401;BME280;63974;47.538;18.972;2023-05-15T10:22:59;99660.78;;;17.22;77.67
75401;BME280;63974;47.538;18.972;2023-05-15T10:26:49;99666.72;;;17.17;77.15
75401;BME280;63974;47.538;18.972;2023-05-15T10:29:45;99671.91;;;16.65;78.66
75401;BME280;63974;47.538;18.972;2023-05-15T10:32:48;99668.31;;;16.30;79.56
75401;BME280;63974;47.538;18.972;2023-05-15T10:35:52;99666.31;;;16.14;81.20
75401;BME280;63974;47.538;18.972;2023-05-15T10:38:56;99666.00;;;16.40;80.64
75401;BME280;63974;47.538;18.972;2023-05-15T10:41:59;99664.09;;;16.47;80.31
75401;BME280;63974;47.538;18.972;2023-05-15T10:45:04;99659.16;;;16.21;80.52
75401;BME280;63974;47.538;18.972;2023-05-15T10:48:09;99662.06;;;16.31;81.27
75401;BME280;63974;47.538;18.972;2023-05-15T10:51:15;99657.84;;;16.30;80.49
75401;BME280;63974;47.538;18.972;2023-05-15T10:54:20;99650.41;;;16.45;81.09
75401;BME280;63974;47.538;18.972;2023-05-15T10:57:24;99658.41;;;16.79;79.86
75401;BME280;63974;47.538;18.972;2023-05-15T11:00:28;99653.97;;;16.50;80.10
75401;BME280;63974;47.538;18.972;2023-05-15T11:03:36;99660.22;;;16.79;78.68
75401;BME280;63974;47.538;18.972;2023-05-15T11:07:14;99661.81;;;16.80;79.42
75401;BME280;63974;47.538;18.972;2023-05-15T11:17:08;99648.59;;;17.50;76.47
75401;BME280;63974;47.538;18.972;2023-05-15T11:20:12;99652.25;;;17.72;76.15
75401;BME280;63974;47.538;18.972;2023-05-15T11:23:14;99647.63;;;18.13;73.88
75401;BME280;63974;47.538;18.972;2023-05-15T11:26:31;99646.72;;;18.08;74.35
75401;BME280;63974;47.538;18.972;2023-05-15T11:29:34;99637.94;;;18.02;75.04
75401;BME280;63974;47.538;18.972;2023-05-15T11:35:57;99615.06;;;18.14;73.77
75401;BME280;63974;47.538;18.972;2023-05-15T11:39:00;99621.75;;;18.22;73.65
75401;BME280;63974;47.538;18.972;2023-05-15T11:42:10;99624.31;;;18.56;72.62
75401;BME280;63974;47.538;18.972;2023-05-15T11:45:13;99625.69;;;18.75;71.80
75401;BME280;63974;47.538;18.972;2023-05-15T11:48:16;99636.78;;;18.94;70.54
75401;BME280;63974;47.538;18.972;2023-05-15T11:51:20;99629.03;;;18.87;70.49
75401;BME280;63974;47.538;18.972;2023-05-15T11:54:28;99619.81;;;19.51;69.64
75401;BME280;63974;47.538;18.972;2023-05-15T11:57:32;99610.28;;;19.88;66.79
75401;BME280;63974;47.538;18.972;2023-05-15T12:00:35;99613.72;;;19.88;67.07
75401;BME280;63974;47.538;18.972;2023-05-15T12:03:38;99610.06;;;20.11;65.64
75401;BME280;63974;47.538;18.972;2023-05-15T12:06:41;99605.00;;;20.83;62.69
75401;BME280;63974;47.538;18.972;2023-05-15T12:09:49;99598.44;;;20.86;62.07
75401;BME280;63974;47.538;18.972;2023-05-15T12:12:54;99587.81;;;20.76;62.08
75401;BME280;63974;47.538;18.972;2023-05-15T12:15:57;99601.53;;;21.04;61.63
75401;BME280;63974;47.538;18.972;2023-05-15T12:19:01;99597.69;;;20.90;61.80
75401;BME280;63974;47.538;18.972;2023-05-15T12:22:04;99594.47;;;20.83;62.40
75401;BME280;63974;47.538;18.972;2023-05-15T12:25:14;99592.22;;;20.70;61.76
75401;BME280;63974;47.538;18.972;2023-05-15T12:28:17;99585.41;;;20.48;63.32
75401;BME280;63974;47.538;18.972;2023-05-15T12:31:20;99589.53;;;19.91;65.95
75401;BME280;63974;47.538;18.972;2023-05-15T12:34:23;99590.31;;;19.70;66.10
75401;BME280;63974;47.538;18.972;2023-05-15T12:37:26;99578.19;;;19.69;65.65
75401;BME280;63974;47.538;18.972;2023-05-15T12:40:32;99576.53;;;20.06;64.11
75401;BME280;63974;47.538;18.972;2023-05-15T12:43:36;99591.31;;;20.07;64.57
75401;BME280;63974;47.538;18.972;2023-05-15T12:46:39;99583.06;;;19.61;66.48
75401;BME280;63974;47.538;18.972;2023-05-15T12:49:42;99582.84;;;19.46;67.56
75401;BME280;63974;47.538;18.972;2023-05-15T12:52:57;99582.69;;;19.52;67.31
75401;BME280;63974;47.538;18.972;2023-05-15T12:56:00;99567.13;;;19.51;67.27
75401;BME280;63974;47.538;18.972;2023-05-15T12:59:03;99553.88;;;19.84;65.62
75401;BME280;63974;47.538;18.972;2023-05-15T13:02:12;99552.56;;;20.34;64.51
75401;BME280;63974;47.538;18.972;2023-05-15T13:05:15;99543.72;;;20.19;64.33
75401;BME280;63974;47.538;18.972;2023-05-15T13:08:18;99530.66;;;20.60;63.22
75401;BME280;63974;47.538;18.972;2023-05-15T13:11:21;99523.50;;;20.55;64.22
75401;BME280;63974;47.538;18.972;2023-05-15T13:14:26;99524.69;;;20.38;63.16
75401;BME280;63974;47.538;18.972;2023-05-15T13:17:32;99526.06;;;20.19;65.41
75401;BME280;63974;47.538;18.972;2023-05-15T13:20:39;99523.34;;;19.45;66.93
75401;BME280;63974;47.538;18.972;2023-05-15T13:23:42;99518.50;;;19.37;67.26
75401;BME280;63974;47.538;18.972;2023-05-15T13:26:45;99512.69;;;19.35;65.78
75401;BME280;63974;47.538;18.972;2023-05-15T13:29:47;99520.66;;;19.40;67.04
75401;BME280;63974;47.538;18.972;2023-05-15T13:32:51;99542.78;;;19.22;67.11
75401;BME280;63974;47.538;18.972;2023-05-15T13:35:57;99538.16;;;19.13;67.89
75401;BME280;63974;47.538;18.972;2023-05-15T13:38:59;99547.72;;;19.02;66.74
75401;BME280;63974;47.538;18.972;2023-05-15T13:42:02;99559.00;;;18.98;66.95
75401;BME280;63974;47.538;18.972;2023-05-15T13:45:07;99560.88;;;19.02;66.81
75401;BME280;63974;47.538;18.972;2023-05-15T13:48:10;99551.81;;;18.93;67.69
75401;BME280;63974;47.538;18.972;2023-05-15T13:51:13;99545.13;;;18.86;68.20
75401;BME280;63974;47.538;18.972;2023-05-15T13:54:16;99551.66;;;19.00;67.92
75401;BME280;63974;47.538;18.972;2023-05-15T13:57:18;99559.69;;;19.10;67.86
75401;BME280;63974;47.538;18.972;2023-05-15T14:00:21;99566.38;;;18.84;67.64
75401;BME280;63974;47.538;18.972;2023-05-15T14:03:24;99571.06;;;18.49;67.86
75401;BME280;63974;47.538;18.972;2023-05-15T14:06:29;99569.16;;;17.66;71.09
75401;BME280;63974;47.538;18.972;2023-05-15T14:09:34;99571.28;;;17.92;70.56
75401;BME280;63974;47.538;18.972;2023-05-15T14:12:37;99578.66;;;18.07;70.76
75401;BME280;63974;47.538;18.972;2023-05-15T14:15:40;99584.41;;;17.92;72.17
75401;BME280;63974;47.538;18.972;2023-05-15T14:18:43;99571.53;;;17.79;72.21
75401;BME280;63974;47.538;18.972;2023-05-15T14:21:47;99592.16;;;17.87;72.32
75401;BME280;63974;47.538;18.972;2023-05-15T14:24:51;99598.13;;;17.83;73.35
75401;BME280;63974;47.538;18.972;2023-05-15T14:27:54;99599.94;;;17.82;73.03
75401;BME280;63974;47.538;18.972;2023-05-15T14:30:57;99600.91;;;17.76;73.15
75401;BME280;63974;47.538;18.972;2023-05-15T14:34:00;99608.44;;;17.73;74.85
75401;BME280;63974;47.538;18.972;2023-05-15T14:37:03;99611.19;;;17.66;75.72
75401;BME280;63974;47.538;18.972;2023-05-15T14:40:06;99615.41;;;17.67;75.38
75401;BME280;63974;47.538;18.972;2023-05-15T14:43:10;99618.94;;;17.73;75.93
75401;BME280;63974;47.538;18.972;2023-05-15T14:46:13;99619.19;;;17.60;76.18
75401;BME280;63974;47.538;18.972;2023-05-15T14:49:16;99627.97;;;17.54;76.93
75401;BME280;63974;47.538;18.972;2023-05-15T14:52:18;99623.75;;;17.41;76.94
75401;BME280;63974;47.538;18.972;2023-05-15T14:55:21;99626.03;;;17.38;79.04
75401;BME280;63974;47.538;18.972;2023-05-15T14:58:24;99637.28;;;17.27;78.03
75401;BME280;63974;47.538;18.972;2023-05-15T15:01:27;99634.41;;;17.17;78.55
75401;BME280;63974;47.538;18.972;2023-05-15T15:04:30;99640.34;;;17.12;78.69
75401;BME280;63974;47.538;18.972;2023-05-15T15:07:58;99644.91;;;17.05;80.47
75401;BME280;63974;47.538;18.972;2023-05-15T15:11:02;99643.28;;;16.93;81.35
75401;BME280;63974;47.538;18.972;2023-05-15T15:14:04;99641.50;;;16.75;81.81
75401;BME280;63974;47.538;18.972;2023-05-15T15:17:07;99645.97;;;16.75;81.34
75401;BME280;63974;47.538;18.972;2023-05-15T15:20:10;99650.84;;;16.71;81.32
75401;BME280;63974;47.538;18.972;2023-05-15T15:23:13;99649.34;;;16.64;82.34
75401;BME280;63974;47.538;18.972;2023-05-15T15:26:17;99653.13;;;16.68;82.85
75401;BME280;63974;47.538;18.972;2023-05-15T15:29:19;99651.75;;;16.65;83.29
75401;BME280;63974;47.538;18.972;2023-05-15T15:32:22;99652.53;;;16.54;82.99
75401;BME280;63974;47.538;18.972;2023-05-15T15:35:25;99653.03;;;16.45;83.53
75401;BME280;63974;47.538;18.972;2023-05-15T15:38:28;99651.06;;;16.40;83.43
75401;BME280;63974;47.538;18.972;2023-05-15T15:41:30;99658.28;;;16.45;83.39
75401;BME280;63974;47.538;18.972;2023-05-15T15:44:33;99652.38;;;16.49;84.20
75401;BME280;63974;47.538;18.972;2023-05-15T15:47:36;99631.38;;;16.38;84.11
75401;BME280;63974;47.538;18.972;2023-05-15T15:50:39;99648.97;;;16.49;84.96
75401;BME280;63974;47.538;18.972;2023-05-15T15:53:42;99648.69;;;16.39;85.72
75401;BME280;63974;47.538;18.972;2023-05-15T15:56:45;99645.97;;;16.27;86.36
75401;BME280;63974;47.538;18.972;2023-05-15T15:59:49;99648.59;;;16.27;85.95
75401;BME280;63974;47.538;18.972;2023-05-15T16:02:52;99643.59;;;16.26;86.10
75401;BME280;63974;47.538;18.972;2023-05-15T16:05:55;99647.66;;;16.22;86.74
75401;BME280;63974;47.538;18.972;2023-05-15T16:09:01;99649.31;;;16.16;86.21
75401;BME280;63974;47.538;18.972;2023-05-15T16:12:04;99648.75;;;16.14;86.92
75401;BME280;63974;47.538;18.972;2023-05-15T16:15:07;99656.56;;;16.03;87.71
75401;BME280;63974;47.538;18.972;2023-05-15T16:18:24;99645.22;;;15.91;88.32
75401;BME280;63974;47.538;18.972;2023-05-15T16:21:27;99644.19;;;15.92;88.78
75401;BME280;63974;47.538;18.972;2023-05-15T16:24:29;99651.28;;;15.85;89.23